Time;durP1;ratioP1;P1;durP2;ratioP2;P2;SDS_P1;SDS_P2;PMS_P1;PMS_P2;Temp;Humidity;BMP_temperature;BMP_pressure;BME280_temperature;BME280_humidity;BME280_pressure;Samples;Min_cycle;Max_cycle;Signal;HPM_P1;HPM_P2
2024/03/23 00:02:06;;;;;;;;;;;;;;;;;;5065419;28;20146;-63
2024/03/23 00:04:32;;;;;;;;;;;;;;;;;;5070155;28;20025;-63
2024/03/23 00:06:58;;;;;;;;;;;;;;;;;;5068725;28;20431;-63
2024/03/23 00:09:24;;;;;;;;;;;;;;;;;;5058744;28;20069;-63
2024/03/23 00:11:50;;;;;;;;;;;;;;;;;;5070891;28;19925;-63
2024/03/23 00:14:16;;;;;;;;;;;;;;;;;;5067490;28;20007;-63
2024/03/23 00:16:42;;;;;;;;;;;;;;;;;;5062304;28;20054;-63
2024/03/23 00:19:09;;;;;;;;;;;;;;;;;;5068661;28;20049;-63
2024/03/23 00:21:38;;;;;;;;;;;;;;;;;;5070172;28;20326;-63
2024/03/23 00:24:04;;;;;;;;;;;;;;;;;;5071404;28;20390;-63
2024/03/23 00:26:31;;;;;;;;;;;;;;;;;;5069744;28;19974;-63
2024/03/23 00:28:57;;;;;;;;;;;;;;;;;;5071115;28;20422;-62
2024/03/23 00:31:22;;;;;;;;;;;;;;;;;;5064333;28;20031;-63
2024/03/23 00:33:48;;;;;;;;;;;;;;;;;;5071360;28;20006;-63
2024/03/23 00:36:14;;;;;;;;;;;;;;;;;;5051530;28;19924;-63
2024/03/23 00:38:40;;;;;;;;;;;;;;;;;;5069250;28;19921;-63
2024/03/23 00:41:06;;;;;;;;;;;;;;;;;;5052106;28;19925;-63
2024/03/23 00:43:32;;;;;;;;;;;;;;;;;;5052779;28;19972;-63
2024/03/23 00:45:58;;;;;;;;;;;;;;;;;;5061412;28;19974;-64
2024/03/23 00:48:24;;;;;;;;;;;;;;;;;;5069069;28;19928;-64
2024/03/23 00:50:50;;;;;;;;;;;;;;;;;;5067531;28;19948;-64
2024/03/23 00:53:16;;;;;;;;;;;;;;;;;;5064531;28;20369;-64
2024/03/23 00:55:42;;;;;;;;;;;;;;;;;;5065510;28;20018;-64
2024/03/23 00:58:08;;;;;;;;;;;;;;;;;;5065805;28;19975;-64
2024/03/23 01:00:34;;;;;;;;;;;;;;;;;;5067734;28;20272;-64
2024/03/23 01:03:00;;;;;;;;;;;;;;;;;;5061298;28;19928;-64
2024/03/23 01:05:25;;;;;;;;;;;;;;;;;;5069365;28;19920;-63
2024/03/23 01:07:51;;;;;;;;;;;;;;;;;;5067503;28;20015;-63
2024/03/23 01:10:17;;;;;;;;;;;;;;;;;;5067253;28;19970;-63
2024/03/23 01:12:43;;;;;;;;;;;;;;;;;;5068186;28;19937;-63
2024/03/23 01:15:09;;;;;;;;;;;;;;;;;;5069402;28;19920;-63
2024/03/23 01:17:35;;;;;;;;;;;;;;;;;;5056349;28;19921;-63
2024/03/23 01:20:01;;;;;;;;;;;;;;;;;;5066405;28;19925;-63
2024/03/23 01:22:27;;;;;;;;;;;;;;;;;;5068519;28;19970;-63
2024/03/23 01:24:53;;;;;;;;;;;;;;;;;;5062283;28;19924;-64
2024/03/23 01:27:19;;;;;;;;;;;;;;;;;;5069746;28;20621;-63
2024/03/23 01:29:44;;;;;;;;;;;;;;;;;;5068682;28;19971;-63
2024/03/23 01:32:10;;;;;;;;;;;;;;;;;;5064667;28;19977;-63
2024/03/23 01:34:36;;;;;;;;;;;;;;;;;;5075651;28;19965;-63
2024/03/23 01:37:02;;;;;;;;;;;;;;;;;;5077153;28;20364;-63
2024/03/23 01:39:28;;;;;;;;;;;;;;;;;;5072093;28;19970;-65
2024/03/23 01:41:54;;;;;;;;;;;;;;;;;;5069017;28;19927;-63
2024/03/23 01:44:20;;;;;;;;;;;;;;;;;;5068922;28;20027;-64
2024/03/23 01:46:46;;;;;;;;;;;;;;;;;;5063350;28;19928;-63
2024/03/23 01:49:12;;;;;;;;;;;;;;;;;;5059119;28;19928;-63
2024/03/23 01:51:38;;;;;;;;;;;;;;;;;;5065965;28;20329;-64
2024/03/23 01:54:03;;;;;;;;;;;;;;;;;;5072118;28;20387;-64
2024/03/23 01:56:30;;;;;;;;;;;;;;;;;;5071085;28;19956;-64
2024/03/23 01:58:56;;;;;;;;;;;;;;;;;;5072146;28;20532;-63
2024/03/23 02:01:21;;;;;;;;;;;;;;;;;;5066464;28;20462;-63
2024/03/23 02:03:47;;;;;;;;;;;;;;;;;;5064083;28;19973;-64
2024/03/23 02:06:13;;;;;;;;;;;;;;;;;;5067745;28;19990;-63
2024/03/23 02:08:39;;;;;;;;;;;;;;;;;;5056137;28;19971;-63
2024/03/23 02:11:05;;;;;;;;;;;;;;;;;;5070101;28;20019;-63
2024/03/23 02:13:31;;;;;;;;;;;;;;;;;;5072726;28;20287;-63
2024/03/23 02:15:58;;;;;;;;;;;;;;;;;;5070659;28;19931;-63
2024/03/23 02:18:24;;;;;;;;;;;;;;;;;;5068854;28;19967;-63
2024/03/23 02:20:49;;;;;;;;;;;;;;;;;;5071258;28;19956;-63
2024/03/23 02:23:16;;;;;;;;;;;;;;;;;;5071331;28;20688;-63
2024/03/23 02:25:42;;;;;;;;;;;;;;;;;;5057720;28;19925;-64
2024/03/23 02:28:08;;;;;;;;;;;;;;;;;;5072895;28;19982;-64
2024/03/23 02:30:33;;;;;;;;;;;;;;;;;;5072321;28;19920;-64
2024/03/23 02:32:59;;;;;;;;;;;;;;;;;;5071810;28;19929;-64
2024/03/23 02:35:25;;;;;;;;;;;;;;;;;;5074295;28;20403;-64
2024/03/23 02:37:52;;;;;;;;;;;;;;;;;;5068086;28;19921;-64
2024/03/23 02:40:18;;;;;;;;;;;;;;;;;;5071715;28;19924;-64
2024/03/23 02:42:44;;;;;;;;;;;;;;;;;;5070106;28;20455;-64
2024/03/23 02:45:10;;;;;;;;;;;;;;;;;;5071520;28;19920;-64
2024/03/23 02:47:36;;;;;;;;;;;;;;;;;;5071089;28;19928;-64
2024/03/23 02:50:02;;;;;;;;;;;;;;;;;;5059522;28;19928;-64
2024/03/23 02:52:28;;;;;;;;;;;;;;;;;;5070640;28;19931;-64
2024/03/23 02:54:54;;;;;;;;;;;;;;;;;;5070067;28;20279;-64
2024/03/23 02:57:20;;;;;;;;;;;;;;;;;;5070171;28;19920;-64
2024/03/23 02:59:46;;;;;;;;;;;;;;;;;;5066957;28;19925;-64
2024/03/23 03:02:11;;;;;;;;;;;;;;;;;;5063069;28;19920;-64
2024/03/23 03:04:37;;;;;;;;;;;;;;;;;;5066379;28;19931;-67
2024/03/23 03:07:04;;;;;;;;;;;;;;;;;;5068791;28;19927;-64
2024/03/23 03:09:30;;;;;;;;;;;;;;;;;;5071429;28;19931;-64
2024/03/23 03:11:56;;;;;;;;;;;;;;;;;;5065633;28;19935;-64
2024/03/23 03:14:22;;;;;;;;;;;;;;;;;;5067645;28;19921;-64
2024/03/23 03:16:48;;;;;;;;;;;;;;;;;;5068642;28;19924;-64
2024/03/23 03:19:16;;;;;;;;;;;;;;;;;;5048852;28;19972;-64
2024/03/23 03:21:42;;;;;;;;;;;;;;;;;;5069755;28;19924;-64
2024/03/23 03:24:08;;;;;;;;;;;;;;;;;;5068444;28;19921;-64
2024/03/23 03:26:34;;;;;;;;;;;;;;;;;;5069842;28;20041;-62
2024/03/23 03:28:59;;;;;;;;;;;;;;;;;;5062974;28;20872;-62
2024/03/23 03:31:26;;;;;;;;;;;;;;;;;;5067564;28;20293;-62
2024/03/23 03:33:52;;;;;;;;;;;;;;;;;;5065082;28;19927;-62
2024/03/23 03:36:18;;;;;;;;;;;;;;;;;;5069258;28;19932;-62
2024/03/23 03:38:44;;;;;;;;;;;;;;;;;;5072303;28;19934;-63
2024/03/23 03:41:10;;;;;;;;;;;;;;;;;;5068493;28;19921;-64
2024/03/23 03:43:36;;;;;;;;;;;;;;;;;;5067525;28;19959;-63
2024/03/23 03:46:02;;;;;;;;;;;;;;;;;;5069105;28;19929;-63
2024/03/23 03:48:28;;;;;;;;;;;;;;;;;;5067060;28;19928;-64
2024/03/23 03:50:54;;;;;;;;;;;;;;;;;;5070272;28;19920;-63
2024/03/23 03:53:20;;;;;;;;;;;;;;;;;;5065671;28;19997;-63
2024/03/23 03:55:46;;;;;;;;;;;;;;;;;;5065846;28;20375;-63
2024/03/23 03:58:12;;;;;;;;;;;;;;;;;;5064469;28;19935;-63
2024/03/23 04:00:38;;;;;;;;;;;;;;;;;;5065350;28;19924;-64
2024/03/23 04:03:04;;;;;;;;;;;;;;;;;;5068066;28;20418;-63
2024/03/23 04:05:30;;;;;;;;;;;;;;;;;;5066635;28;19921;-62
2024/03/23 04:07:55;;;;;;;;;;;;;;;;;;5070371;28;19920;-64
2024/03/23 04:10:21;;;;;;;;;;;;;;;;;;5070198;28;20518;-63
2024/03/23 04:12:47;;;;;;;;;;;;;;;;;;5067569;28;19944;-63
2024/03/23 04:15:13;;;;;;;;;;;;;;;;;;5067736;28;19927;-63
2024/03/23 04:17:39;;;;;;;;;;;;;;;;;;5070189;28;19921;-63
2024/03/23 04:20:08;;;;;;;;;;;;;;;;;;5069021;28;20630;-63
2024/03/23 04:22:34;;;;;;;;;;;;;;;;;;5068821;28;20003;-63
2024/03/23 04:25:06;;;;;;;;;;;;;;;;;;5070582;28;20336;-63
2024/03/23 04:27:32;;;;;;;;;;;;;;;;;;5066998;28;19947;-63
2024/03/23 04:29:58;;;;;;;;;;;;;;;;;;5064755;28;20282;-63
2024/03/23 04:32:24;;;;;;;;;;;;;;;;;;5067952;28;20379;-63
2024/03/23 04:34:50;;;;;;;;;;;;;;;;;;5068003;28;19920;-63
2024/03/23 04:37:16;;;;;;;;;;;;;;;;;;5071436;28;19924;-63
2024/03/23 04:39:42;;;;;;;;;;;;;;;;;;5066745;28;19924;-63
2024/03/23 04:42:08;;;;;;;;;;;;;;;;;;5068852;28;19924;-63
2024/03/23 04:44:34;;;;;;;;;;;;;;;;;;5066910;28;19925;-63
2024/03/23 04:47:00;;;;;;;;;;;;;;;;;;5065677;28;19925;-63
2024/03/23 04:49:26;;;;;;;;;;;;;;;;;;5067333;28;19925;-63
2024/03/23 04:51:52;;;;;;;;;;;;;;;;;;5066003;28;19925;-63
2024/03/23 04:54:18;;;;;;;;;;;;;;;;;;5066276;28;19967;-63
2024/03/23 04:56:44;;;;;;;;;;;;;;;;;;5076820;23;19935;-67
2024/03/23 04:59:09;;;;;;;;;;;;;;;;;;5049761;28;19930;-67
2024/03/23 05:01:38;;;;;;;;;;;;;;;;;;5039296;28;20307;-68
2024/03/23 05:04:05;;;;;;;;;;;;;;;;;;5034188;28;19928;-68
2024/03/23 05:06:31;;;;;;;;;;;;;;;;;;5031944;28;20007;-67
2024/03/23 05:08:56;;;;;;;;;;;;;;;;;;5050729;28;20020;-67
2024/03/23 05:11:22;;;;;;;;;;;;;;;;;;5052088;28;20020;-66
2024/03/23 05:13:48;;;;;;;;;;;;;;;;;;5048886;28;20307;-66
2024/03/23 05:16:14;;;;;;;;;;;;;;;;;;5044546;28;19960;-67
2024/03/23 05:18:40;;;;;;;;;;;;;;;;;;5039497;28;19964;-68
2024/03/23 05:21:06;;;;;;;;;;;;;;;;;;5051889;28;19952;-68
2024/03/23 05:23:32;;;;;;;;;;;;;;;;;;5052238;28;20095;-67
2024/03/23 05:25:58;;;;;;;;;;;;;;;;;;5033002;28;19935;-66
2024/03/23 05:28:24;;;;;;;;;;;;;;;;;;5050519;28;19927;-63
2024/03/23 05:30:50;;;;;;;;;;;;;;;;;;5045598;28;19939;-64
2024/03/23 05:33:15;;;;;;;;;;;;;;;;;;5048098;28;19955;-64
2024/03/23 05:35:41;;;;;;;;;;;;;;;;;;5049745;28;20311;-64
2024/03/23 05:38:07;;;;;;;;;;;;;;;;;;5051523;28;20354;-65
2024/03/23 05:40:37;;;;;;;;;;;;;;;;;;5051995;28;19921;-64
2024/03/23 05:43:03;;;;;;;;;;;;;;;;;;5034768;28;19924;-67
2024/03/23 05:45:29;;;;;;;;;;;;;;;;;;5031786;28;20307;-67
2024/03/23 05:47:56;;;;;;;;;;;;;;;;;;5038804;28;19925;-67
2024/03/23 05:50:22;;;;;;;;;;;;;;;;;;5048321;28;19921;-66
2024/03/23 05:52:48;;;;;;;;;;;;;;;;;;5053247;28;20410;-65
2024/03/23 05:55:14;;;;;;;;;;;;;;;;;;5040694;28;19936;-66
2024/03/23 05:57:40;;;;;;;;;;;;;;;;;;5028993;28;19929;-66
2024/03/23 06:00:10;;;;;;;;;;;;;;;;;;5052201;28;20478;-67
2024/03/23 06:02:36;;;;;;;;;;;;;;;;;;5051533;28;19924;-67
2024/03/23 06:05:02;;;;;;;;;;;;;;;;;;5051590;28;20496;-68
2024/03/23 06:07:28;;;;;;;;;;;;;;;;;;5051504;28;19936;-68
2024/03/23 06:09:53;;;;;;;;;;;;;;;;;;5051296;28;19925;-67
2024/03/23 06:12:21;;;;;;;;;;;;;;;;;;5052431;28;20015;-66
2024/03/23 06:14:49;;;;;;;;;;;;;;;;;;5046365;28;19921;-68
2024/03/23 06:17:15;;;;;;;;;;;;;;;;;;5049734;28;19964;-67
2024/03/23 06:19:41;;;;;;;;;;;;;;;;;;5050811;28;19921;-67
2024/03/23 06:22:07;;;;;;;;;;;;;;;;;;5051532;28;19932;-64
2024/03/23 06:24:33;;;;;;;;;;;;;;;;;;5049169;28;19920;-64
2024/03/23 06:26:59;;;;;;;;;;;;;;;;;;5052378;28;20371;-64
2024/03/23 06:29:25;;;;;;;;;;;;;;;;;;5045866;28;19983;-64
2024/03/23 06:31:51;;;;;;;;;;;;;;;;;;5046833;28;19929;-64
2024/03/23 06:34:17;;;;;;;;;;;;;;;;;;5062702;28;19920;-64
2024/03/23 06:36:44;;;;;;;;;;;;;;;;;;5055490;28;19921;-64
2024/03/23 06:39:12;;;;;;;;;;;;;;;;;;5047718;28;19963;-64
2024/03/23 06:41:38;;;;;;;;;;;;;;;;;;5047552;28;19929;-65
2024/03/23 06:44:04;;;;;;;;;;;;;;;;;;5038504;28;19920;-65
2024/03/23 06:46:31;;;;;;;;;;;;;;;;;;5048735;28;20442;-65
2024/03/23 06:48:57;;;;;;;;;;;;;;;;;;5044674;28;19921;-63
2024/03/23 06:51:23;;;;;;;;;;;;;;;;;;5052202;28;19932;-64
2024/03/23 06:53:48;;;;;;;;;;;;;;;;;;5056117;28;19972;-66
2024/03/23 06:56:14;;;;;;;;;;;;;;;;;;5046311;28;19925;-67
2024/03/23 06:58:40;;;;;;;;;;;;;;;;;;5045300;28;20334;-67
2024/03/23 07:01:06;;;;;;;;;;;;;;;;;;5043201;28;19925;-67
2024/03/23 07:03:32;;;;;;;;;;;;;;;;;;5052604;28;19931;-68
2024/03/23 07:05:58;;;;;;;;;;;;;;;;;;5050529;28;19921;-68
2024/03/23 07:08:24;;;;;;;;;;;;;;;;;;5050908;28;20456;-67
2024/03/23 07:10:50;;;;;;;;;;;;;;;;;;5050803;28;19920;-67
2024/03/23 07:13:17;;;;;;;;;;;;;;;;;;5051114;28;20011;-67
2024/03/23 07:15:43;;;;;;;;;;;;;;;;;;5045857;28;20007;-68
2024/03/23 07:18:08;;;;;;;;;;;;;;;;;;5052445;28;20399;-67
2024/03/23 07:20:35;;;;;;;;;;;;;;;;;;5034710;28;19946;-67
2024/03/23 07:23:01;;;;;;;;;;;;;;;;;;5050585;28;19921;-68
2024/03/23 07:25:29;;;;;;;;;;;;;;;;;;5052222;28;20251;-66
2024/03/23 07:27:54;;;;;;;;;;;;;;;;;;5050766;28;19978;-66
2024/03/23 07:30:20;;;;;;;;;;;;;;;;;;5037748;28;19933;-66
2024/03/23 07:32:47;;;;;;;;;;;;;;;;;;5032521;28;19929;-66
2024/03/23 07:35:13;;;;;;;;;;;;;;;;;;5032107;28;19921;-66
2024/03/23 07:37:39;;;;;;;;;;;;;;;;;;5031889;28;19927;-67
2024/03/23 07:40:05;;;;;;;;;;;;;;;;;;5050576;28;19976;-67
2024/03/23 07:42:31;;;;;;;;;;;;;;;;;;5049615;28;20323;-67
2024/03/23 07:44:56;;;;;;;;;;;;;;;;;;5051559;28;20426;-67
2024/03/23 07:47:22;;;;;;;;;;;;;;;;;;5037187;28;19921;-67
2024/03/23 07:49:48;;;;;;;;;;;;;;;;;;5036520;28;20392;-68
2024/03/23 07:52:15;;;;;;;;;;;;;;;;;;5048226;28;19939;-68
2024/03/23 07:54:41;;;;;;;;;;;;;;;;;;5045498;28;19927;-65
2024/03/23 07:57:06;;;;;;;;;;;;;;;;;;5050850;28;19935;-65
2024/03/23 07:59:33;;;;;;;;;;;;;;;;;;5050169;28;19932;-63
2024/03/23 08:01:59;;;;;;;;;;;;;;;;;;5048649;28;19924;-64
2024/03/23 08:04:25;;;;;;;;;;;;;;;;;;5041265;28;19928;-64
2024/03/23 08:06:51;;;;;;;;;;;;;;;;;;5048565;28;19924;-65
2024/03/23 08:09:18;;;;;;;;;;;;;;;;;;5044410;28;19929;-65
2024/03/23 08:11:46;;;;;;;;;;;;;;;;;;5044443;28;20447;-65
2024/03/23 08:14:12;;;;;;;;;;;;;;;;;;5048278;28;20435;-65
2024/03/23 08:16:38;;;;;;;;;;;;;;;;;;5045194;28;19936;-65
2024/03/23 08:19:05;;;;;;;;;;;;;;;;;;5044506;28;19921;-65
2024/03/23 08:21:31;;;;;;;;;;;;;;;;;;5048186;28;20376;-64
2024/03/23 08:23:57;;;;;;;;;;;;;;;;;;5049452;28;19927;-64
2024/03/23 08:26:23;;;;;;;;;;;;;;;;;;5047103;28;19924;-65
2024/03/23 08:28:49;;;;;;;;;;;;;;;;;;5049194;28;19988;-65
2024/03/23 08:31:14;;;;;;;;;;;;;;;;;;5047749;28;19925;-65
2024/03/23 08:33:42;;;;;;;;;;;;;;;;;;5044919;28;19925;-66
2024/03/23 08:36:08;;;;;;;;;;;;;;;;;;5047489;28;19920;-65
2024/03/23 08:38:34;;;;;;;;;;;;;;;;;;5049872;28;19974;-64
2024/03/23 08:41:00;;;;;;;;;;;;;;;;;;5048418;28;19928;-65
2024/03/23 08:43:26;;;;;;;;;;;;;;;;;;5046884;28;19924;-64
2024/03/23 08:45:52;;;;;;;;;;;;;;;;;;5049232;28;20009;-67
2024/03/23 08:48:19;;;;;;;;;;;;;;;;;;5052641;28;19932;-67
2024/03/23 08:50:45;;;;;;;;;;;;;;;;;;5052000;28;19929;-67
2024/03/23 08:53:11;;;;;;;;;;;;;;;;;;5046862;28;19956;-67
2024/03/23 08:55:37;;;;;;;;;;;;;;;;;;5051560;28;19931;-67
2024/03/23 08:58:03;;;;;;;;;;;;;;;;;;5030070;28;20708;-67
2024/03/23 09:00:29;;;;;;;;;;;;;;;;;;5051086;28;19925;-67
2024/03/23 09:02:56;;;;;;;;;;;;;;;;;;5048925;28;19948;-67
2024/03/23 09:05:24;;;;;;;;;;;;;;;;;;5049207;28;20012;-67
2024/03/23 09:07:50;;;;;;;;;;;;;;;;;;5051806;28;19925;-67
2024/03/23 09:10:15;;;;;;;;;;;;;;;;;;5054106;28;20007;-67
2024/03/23 09:12:41;;;;;;;;;;;;;;;;;;5051005;28;20527;-67
2024/03/23 09:15:07;;;;;;;;;;;;;;;;;;5052701;28;20016;-67
2024/03/23 09:17:33;;;;;;;;;;;;;;;;;;5054796;28;19964;-67
2024/03/23 09:19:59;;;;;;;;;;;;;;;;;;5053430;28;20047;-67
2024/03/23 09:22:25;;;;;;;;;;;;;;;;;;5051749;28;20024;-67
2024/03/23 09:24:51;;;;;;;;;;;;;;;;;;5050797;28;20304;-68
2024/03/23 09:27:17;;;;;;;;;;;;;;;;;;5046467;28;20015;-68
2024/03/23 09:29:43;;;;;;;;;;;;;;;;;;5049853;28;19921;-68
2024/03/23 09:32:09;;;;;;;;;;;;;;;;;;5052711;28;20275;-66
2024/03/23 09:34:34;;;;;;;;;;;;;;;;;;5053326;28;19921;-67
2024/03/23 09:37:00;;;;;;;;;;;;;;;;;;5052765;28;19931;-64
2024/03/23 09:39:26;;;;;;;;;;;;;;;;;;5052674;28;19924;-64
2024/03/23 09:41:52;;;;;;;;;;;;;;;;;;5051628;28;20447;-65
2024/03/23 09:44:18;;;;;;;;;;;;;;;;;;5052098;28;19943;-64
2024/03/23 09:46:44;;;;;;;;;;;;;;;;;;5062796;28;19925;-65
2024/03/23 09:49:10;;;;;;;;;;;;;;;;;;5052825;28;19967;-66
2024/03/23 09:51:36;;;;;;;;;;;;;;;;;;5053201;28;19932;-65
2024/03/23 09:54:02;;;;;;;;;;;;;;;;;;5050351;28;20387;-64
2024/03/23 09:56:28;;;;;;;;;;;;;;;;;;5034446;28;19924;-64
2024/03/23 09:58:54;;;;;;;;;;;;;;;;;;5041440;28;19932;-64
2024/03/23 10:01:20;;;;;;;;;;;;;;;;;;5053368;28;19928;-64
2024/03/23 10:03:46;;;;;;;;;;;;;;;;;;5034792;28;20336;-64
2024/03/23 10:06:12;;;;;;;;;;;;;;;;;;5050205;28;19932;-65
2024/03/23 10:08:37;;;;;;;;;;;;;;;;;;5052308;28;19932;-65
2024/03/23 10:11:03;;;;;;;;;;;;;;;;;;5052219;28;19928;-68
2024/03/23 10:13:31;;;;;;;;;;;;;;;;;;5053207;28;19978;-68
2024/03/23 10:15:57;;;;;;;;;;;;;;;;;;5049194;28;19921;-68
2024/03/23 10:18:24;;;;;;;;;;;;;;;;;;5045254;28;19924;-68
2024/03/23 10:20:50;;;;;;;;;;;;;;;;;;5053528;28;19920;-68
2024/03/23 10:23:16;;;;;;;;;;;;;;;;;;5050401;28;19929;-68
2024/03/23 10:25:42;;;;;;;;;;;;;;;;;;5049644;28;20428;-68
2024/03/23 10:28:07;;;;;;;;;;;;;;;;;;5043544;28;20331;-68
2024/03/23 10:30:33;;;;;;;;;;;;;;;;;;5050957;28;19921;-68
2024/03/23 10:32:59;;;;;;;;;;;;;;;;;;5045402;28;19929;-68
2024/03/23 10:35:25;;;;;;;;;;;;;;;;;;5051399;28;19932;-68
2024/03/23 10:37:51;;;;;;;;;;;;;;;;;;5050446;28;19929;-67
2024/03/23 10:40:17;;;;;;;;;;;;;;;;;;5052267;28;19921;-67
2024/03/23 10:42:43;;;;;;;;;;;;;;;;;;5050031;28;20007;-67
2024/03/23 10:45:09;;;;;;;;;;;;;;;;;;5049826;28;20462;-67
2024/03/23 10:47:36;;;;;;;;;;;;;;;;;;5051771;28;20011;-67
2024/03/23 10:50:02;;;;;;;;;;;;;;;;;;5042464;28;19927;-69
2024/03/23 10:52:27;;;;;;;;;;;;;;;;;;5031446;28;20299;-67
2024/03/23 10:54:53;;;;;;;;;;;;;;;;;;5044931;28;19931;-68
2024/03/23 10:57:19;;;;;;;;;;;;;;;;;;5052415;28;19931;-66
2024/03/23 10:59:45;;;;;;;;;;;;;;;;;;5050799;28;19931;-68
2024/03/23 11:02:13;;;;;;;;;;;;;;;;;;5048322;28;20442;-68
2024/03/23 11:04:38;;;;;;;;;;;;;;;;;;5044643;28;19966;-68
2024/03/23 11:07:04;;;;;;;;;;;;;;;;;;5049500;28;20337;-68
2024/03/23 11:09:30;;;;;;;;;;;;;;;;;;5049622;28;20387;-67
2024/03/23 11:11:56;;;;;;;;;;;;;;;;;;5050407;28;20019;-68
2024/03/23 11:14:23;;;;;;;;;;;;;;;;;;5052557;28;20011;-67
2024/03/23 11:16:49;;;;;;;;;;;;;;;;;;5049174;28;19928;-68
2024/03/23 11:19:15;;;;;;;;;;;;;;;;;;5050268;28;19925;-68
2024/03/23 11:21:41;;;;;;;;;;;;;;;;;;5051186;28;20352;-67
2024/03/23 11:24:07;;;;;;;;;;;;;;;;;;5050630;28;19924;-67
2024/03/23 11:26:33;;;;;;;;;;;;;;;;;;5052677;28;19921;-68
2024/03/23 11:28:59;;;;;;;;;;;;;;;;;;5050505;28;19943;-68
2024/03/23 11:31:24;;;;;;;;;;;;;;;;;;5050766;28;20384;-68
2024/03/23 11:33:50;;;;;;;;;;;;;;;;;;5050996;28;19932;-68
2024/03/23 11:36:16;;;;;;;;;;;;;;;;;;5050817;28;19920;-68
2024/03/23 11:38:42;;;;;;;;;;;;;;;;;;5051872;28;19948;-68
2024/03/23 11:41:08;;;;;;;;;;;;;;;;;;5050346;28;19975;-68
2024/03/23 11:43:34;;;;;;;;;;;;;;;;;;5048218;28;19974;-68
2024/03/23 11:46:03;;;;;;;;;;;;;;;;;;5048517;28;19929;-68
2024/03/23 11:48:28;;;;;;;;;;;;;;;;;;5040568;28;19928;-68
2024/03/23 11:50:54;;;;;;;;;;;;;;;;;;5037883;28;19921;-68
2024/03/23 11:53:20;;;;;;;;;;;;;;;;;;5047180;28;19935;-68
2024/03/23 11:55:46;;;;;;;;;;;;;;;;;;5049170;28;19932;-68
2024/03/23 11:58:12;;;;;;;;;;;;;;;;;;5050779;28;19924;-68
2024/03/23 12:00:38;;;;;;;;;;;;;;;;;;5052477;28;19970;-67
2024/03/23 12:03:04;;;;;;;;;;;;;;;;;;5058334;28;20378;-67
2024/03/23 12:05:30;;;;;;;;;;;;;;;;;;5018793;28;19922;-68
2024/03/23 12:07:56;;;;;;;;;;;;;;;;;;5048496;28;19932;-68
2024/03/23 12:10:22;;;;;;;;;;;;;;;;;;5042175;28;19959;-68
2024/03/23 12:12:48;;;;;;;;;;;;;;;;;;5031866;28;19935;-67
2024/03/23 12:15:14;;;;;;;;;;;;;;;;;;5044000;28;19960;-68
2024/03/23 12:17:40;;;;;;;;;;;;;;;;;;5036837;28;20406;-68
2024/03/23 12:20:07;;;;;;;;;;;;;;;;;;5039748;28;20376;-68
2024/03/23 12:22:35;;;;;;;;;;;;;;;;;;5042769;28;19923;-69
2024/03/23 12:25:00;;;;;;;;;;;;;;;;;;5050715;28;19924;-68
2024/03/23 12:27:26;;;;;;;;;;;;;;;;;;5046972;28;20355;-67
2024/03/23 12:29:52;;;;;;;;;;;;;;;;;;5051202;28;19928;-67
2024/03/23 12:32:18;;;;;;;;;;;;;;;;;;5042835;28;19936;-68
2024/03/23 12:34:44;;;;;;;;;;;;;;;;;;5048289;28;19921;-68
2024/03/23 12:37:12;;;;;;;;;;;;;;;;;;5042440;28;19928;-68
2024/03/23 12:39:38;;;;;;;;;;;;;;;;;;5034731;28;19921;-68
2024/03/23 12:42:04;;;;;;;;;;;;;;;;;;5040953;28;20578;-68
2024/03/23 12:44:30;;;;;;;;;;;;;;;;;;5036188;28;19966;-68
2024/03/23 12:46:56;;;;;;;;;;;;;;;;;;5029357;28;19939;-68
2024/03/23 12:49:22;;;;;;;;;;;;;;;;;;5049789;28;19927;-68
2024/03/23 12:51:48;;;;;;;;;;;;;;;;;;5049645;28;20028;-68
2024/03/23 12:54:14;;;;;;;;;;;;;;;;;;5047784;28;20066;-67
2024/03/23 12:56:39;;;;;;;;;;;;;;;;;;5046758;28;20354;-68
2024/03/23 12:59:05;;;;;;;;;;;;;;;;;;5050549;28;20017;-68
2024/03/23 13:01:31;;;;;;;;;;;;;;;;;;5039369;28;19921;-68
2024/03/23 13:03:59;;;;;;;;;;;;;;;;;;5041383;28;20372;-68
2024/03/23 13:06:24;;;;;;;;;;;;;;;;;;5045613;28;20383;-69
2024/03/23 13:08:50;;;;;;;;;;;;;;;;;;5049751;28;19986;-68
2024/03/23 13:11:16;;;;;;;;;;;;;;;;;;5047814;28;20129;-67
2024/03/23 13:13:42;;;;;;;;;;;;;;;;;;5047487;28;19929;-68
2024/03/23 13:16:08;;;;;;;;;;;;;;;;;;5045663;28;19921;-68
2024/03/23 13:18:34;;;;;;;;;;;;;;;;;;5031529;28;19924;-68
2024/03/23 13:21:00;;;;;;;;;;;;;;;;;;5043965;28;19927;-67
2024/03/23 13:23:26;;;;;;;;;;;;;;;;;;5042071;28;19999;-69
2024/03/23 13:25:52;;;;;;;;;;;;;;;;;;5048502;28;19920;-69
2024/03/23 13:28:18;;;;;;;;;;;;;;;;;;5031399;28;19925;-66
2024/03/23 13:30:44;;;;;;;;;;;;;;;;;;5050295;28;20398;-67
2024/03/23 13:33:10;;;;;;;;;;;;;;;;;;5050427;28;19924;-67
2024/03/23 13:35:36;;;;;;;;;;;;;;;;;;5048204;28;19921;-67
2024/03/23 13:38:02;;;;;;;;;;;;;;;;;;5044040;28;19925;-67
2024/03/23 13:40:28;;;;;;;;;;;;;;;;;;5047068;28;20379;-68
2024/03/23 13:42:54;;;;;;;;;;;;;;;;;;5050160;28;19932;-67
2024/03/23 13:45:20;;;;;;;;;;;;;;;;;;5047979;28;19929;-68
2024/03/23 13:47:45;;;;;;;;;;;;;;;;;;5047764;28;19928;-67
2024/03/23 13:50:12;;;;;;;;;;;;;;;;;;5044605;28;20304;-67
2024/03/23 13:52:38;;;;;;;;;;;;;;;;;;5048874;28;20591;-68
2024/03/23 13:55:05;;;;;;;;;;;;;;;;;;5052723;28;20008;-68
2024/03/23 13:57:31;;;;;;;;;;;;;;;;;;5034332;28;19925;-68
2024/03/23 13:59:57;;;;;;;;;;;;;;;;;;5044948;28;19925;-68
2024/03/23 14:02:24;;;;;;;;;;;;;;;;;;5052652;28;19975;-68
2024/03/23 14:04:50;;;;;;;;;;;;;;;;;;5049773;28;19921;-68
2024/03/23 14:07:18;;;;;;;;;;;;;;;;;;5062652;28;19935;-63
2024/03/23 14:09:44;;;;;;;;;;;;;;;;;;5051903;28;20399;-65
2024/03/23 14:12:10;;;;;;;;;;;;;;;;;;5048237;28;19951;-63
2024/03/23 14:14:35;;;;;;;;;;;;;;;;;;5052457;28;19924;-66
2024/03/23 14:17:01;;;;;;;;;;;;;;;;;;5049446;28;19966;-67
2024/03/23 14:19:27;;;;;;;;;;;;;;;;;;5052636;28;19924;-66
2024/03/23 14:21:54;;;;;;;;;;;;;;;;;;5050224;28;19921;-66
2024/03/23 14:24:19;;;;;;;;;;;;;;;;;;5050471;28;19924;-65
2024/03/23 14:26:45;;;;;;;;;;;;;;;;;;5051393;28;20711;-66
2024/03/23 14:29:11;;;;;;;;;;;;;;;;;;5051029;28;19924;-66
2024/03/23 14:31:37;;;;;;;;;;;;;;;;;;5048567;28;19928;-67
2024/03/23 14:34:03;;;;;;;;;;;;;;;;;;5045323;28;19928;-67
2024/03/23 14:36:29;;;;;;;;;;;;;;;;;;5039521;28;19927;-67
2024/03/23 14:38:55;;;;;;;;;;;;;;;;;;5051790;28;20368;-67
2024/03/23 14:41:21;;;;;;;;;;;;;;;;;;5049873;28;19921;-67
2024/03/23 14:43:49;;;;;;;;;;;;;;;;;;5050551;28;19921;-66
2024/03/23 14:46:15;;;;;;;;;;;;;;;;;;5044565;28;19932;-66
2024/03/23 14:48:42;;;;;;;;;;;;;;;;;;5050232;28;19939;-66
2024/03/23 14:51:08;;;;;;;;;;;;;;;;;;5040162;28;19968;-66
2024/03/23 14:53:34;;;;;;;;;;;;;;;;;;5051709;28;19966;-66
2024/03/23 14:56:01;;;;;;;;;;;;;;;;;;5052799;28;20372;-66
2024/03/23 14:58:27;;;;;;;;;;;;;;;;;;5050777;28;20099;-66
2024/03/23 15:00:52;;;;;;;;;;;;;;;;;;5050756;28;19999;-66
2024/03/23 15:03:18;;;;;;;;;;;;;;;;;;5043246;28;19925;-66
2024/03/23 15:05:44;;;;;;;;;;;;;;;;;;5038740;28;19920;-67
2024/03/23 15:08:11;;;;;;;;;;;;;;;;;;5045182;28;20257;-67
2024/03/23 15:10:37;;;;;;;;;;;;;;;;;;5049822;28;19929;-66
2024/03/23 15:13:03;;;;;;;;;;;;;;;;;;5048510;28;19970;-67
2024/03/23 15:15:28;;;;;;;;;;;;;;;;;;5047816;28;19921;-67
2024/03/23 15:17:54;;;;;;;;;;;;;;;;;;5047423;28;29035;-67
2024/03/23 15:20:20;;;;;;;;;;;;;;;;;;5050465;28;20283;-67
2024/03/23 15:22:46;;;;;;;;;;;;;;;;;;5051192;28;20386;-67
2024/03/23 15:25:12;;;;;;;;;;;;;;;;;;5046859;28;19920;-67
2024/03/23 15:27:38;;;;;;;;;;;;;;;;;;5042031;28;19929;-67
2024/03/23 15:30:04;;;;;;;;;;;;;;;;;;5048239;28;19931;-67
2024/03/23 15:32:30;;;;;;;;;;;;;;;;;;5045590;28;19931;-67
2024/03/23 15:34:56;;;;;;;;;;;;;;;;;;5050957;28;19921;-67
2024/03/23 15:37:22;;;;;;;;;;;;;;;;;;5050455;28;19940;-66
2024/03/23 15:39:48;;;;;;;;;;;;;;;;;;5050743;28;20372;-66
2024/03/23 15:42:14;;;;;;;;;;;;;;;;;;5052211;28;19925;-66
2024/03/23 15:44:40;;;;;;;;;;;;;;;;;;5047323;28;19922;-67
2024/03/23 15:47:06;;;;;;;;;;;;;;;;;;5034783;28;20372;-68
2024/03/23 15:49:32;;;;;;;;;;;;;;;;;;5049561;28;20610;-68
2024/03/23 15:51:59;;;;;;;;;;;;;;;;;;5051405;28;20015;-68
2024/03/23 15:54:25;;;;;;;;;;;;;;;;;;5051741;28;20054;-67
2024/03/23 15:56:51;;;;;;;;;;;;;;;;;;5051866;28;20402;-67
2024/03/23 15:59:17;;;;;;;;;;;;;;;;;;5051429;28;19964;-67
2024/03/23 16:01:44;;;;;;;;;;;;;;;;;;5050791;28;19929;-67
2024/03/23 16:04:10;;;;;;;;;;;;;;;;;;5031374;28;19921;-66
2024/03/23 16:06:36;;;;;;;;;;;;;;;;;;5031085;28;20020;-67
2024/03/23 16:09:01;;;;;;;;;;;;;;;;;;5029300;28;20112;-67
2024/03/23 16:11:27;;;;;;;;;;;;;;;;;;5043404;28;20374;-66
2024/03/23 16:13:53;;;;;;;;;;;;;;;;;;5050990;28;20015;-67
2024/03/23 16:16:22;;;;;;;;;;;;;;;;;;5051623;28;19968;-66
2024/03/23 16:18:48;;;;;;;;;;;;;;;;;;5039603;28;19935;-66
2024/03/23 16:21:14;;;;;;;;;;;;;;;;;;5039044;28;19924;-66
2024/03/23 16:23:43;;;;;;;;;;;;;;;;;;5034455;28;20134;-66
2024/03/23 16:26:12;;;;;;;;;;;;;;;;;;5036315;28;19938;-67
2024/03/23 16:28:38;;;;;;;;;;;;;;;;;;5050479;28;20668;-67
2024/03/23 16:31:04;;;;;;;;;;;;;;;;;;5050683;28;19980;-67
2024/03/23 16:33:33;;;;;;;;;;;;;;;;;;5044191;28;20288;-67
2024/03/23 16:35:59;;;;;;;;;;;;;;;;;;5031571;28;19928;-67
2024/03/23 16:38:25;;;;;;;;;;;;;;;;;;5031494;28;20012;-66